createdAt,value
2023-05-24T00:00:31.291Z,8.42
2023-05-24T00:01:30.959Z,8.42
2023-05-24T00:02:31.055Z,8.40
2023-05-24T00:03:31.198Z,8.37
2023-05-24T00:04:30.933Z,8.37
2023-05-24T00:05:30.945Z,8.36
2023-05-24T00:06:30.888Z,8.32
2023-05-24T00:07:30.990Z,8.29
2023-05-24T00:08:30.876Z,8.28
2023-05-24T00:09:30.894Z,8.27
2023-05-24T00:10:30.867Z,8.27
2023-05-24T00:11:30.850Z,8.25
2023-05-24T00:12:30.841Z,8.25
2023-05-24T00:13:30.808Z,8.25
2023-05-24T00:14:30.801Z,8.25
2023-05-24T00:15:30.809Z,8.24
2023-05-24T00:16:30.835Z,8.24
2023-05-24T00:17:30.806Z,8.24
2023-05-24T00:18:30.767Z,8.24
2023-05-24T00:19:30.764Z,8.24
2023-05-24T00:20:30.813Z,8.22
2023-05-24T00:21:30.711Z,8.20
2023-05-24T00:22:30.713Z,8.17
2023-05-24T00:23:30.697Z,8.14
2023-05-24T00:24:30.692Z,8.14
2023-05-24T00:25:30.728Z,8.12
2023-05-24T00:26:30.679Z,8.12
2023-05-24T00:27:30.662Z,8.12
2023-05-24T00:28:30.657Z,8.09
2023-05-24T00:29:32.319Z,8.09
2023-05-24T00:30:30.618Z,8.10
2023-05-24T00:31:30.688Z,8.07
2023-05-24T00:32:30.590Z,8.06
2023-05-24T00:33:30.576Z,8.06
2023-05-24T00:34:30.562Z,8.04
2023-05-24T00:35:30.571Z,8.04
2023-05-24T00:36:30.536Z,8.03
2023-05-24T00:37:30.533Z,8.02
2023-05-24T00:38:30.529Z,8.03
2023-05-24T00:39:30.513Z,8.00
2023-05-24T00:40:30.515Z,7.99
2023-05-24T00:41:30.483Z,8.00
2023-05-24T00:42:30.469Z,7.99
2023-05-24T00:43:30.495Z,7.96
2023-05-24T00:44:30.446Z,7.99
2023-05-24T00:45:33.004Z,7.96
2023-05-24T00:46:30.587Z,7.95
2023-05-24T00:47:30.477Z,7.96
2023-05-24T00:48:30.419Z,7.96
2023-05-24T00:49:30.412Z,7.95
2023-05-24T00:50:30.405Z,7.94
2023-05-24T00:51:30.372Z,7.95
2023-05-24T00:52:30.354Z,7.95
2023-05-24T00:53:30.358Z,7.96
2023-05-24T00:54:30.330Z,7.96
2023-05-24T00:55:30.369Z,7.96
2023-05-24T00:56:30.311Z,7.95
2023-05-24T00:57:30.303Z,7.95
2023-05-24T00:58:30.289Z,7.95
2023-05-24T00:59:30.283Z,7.94
2023-05-24T01:00:30.293Z,7.95
2023-05-24T01:01:30.286Z,7.94
2023-05-24T01:02:30.319Z,7.92
2023-05-24T01:03:30.395Z,7.95
2023-05-24T01:04:30.233Z,7.95
2023-05-24T01:05:30.259Z,7.96
2023-05-24T01:06:30.212Z,7.95
2023-05-24T01:07:30.217Z,7.94
2023-05-24T01:08:30.196Z,7.92
2023-05-24T01:09:30.172Z,7.91
2023-05-24T01:10:30.165Z,7.91
2023-05-24T01:11:30.150Z,7.89
2023-05-24T01:12:30.144Z,7.88
2023-05-24T01:13:30.156Z,7.86
2023-05-24T01:14:30.124Z,7.85
2023-05-24T01:15:30.107Z,7.84
2023-05-24T01:16:30.177Z,7.84
2023-05-24T01:17:30.140Z,7.81
2023-05-24T01:18:30.105Z,7.77
2023-05-24T01:19:30.063Z,7.73
2023-05-24T01:20:30.112Z,7.71
2023-05-24T01:21:30.056Z,7.71
2023-05-24T01:22:30.042Z,7.70
2023-05-24T01:23:30.047Z,7.71
2023-05-24T01:24:30.007Z,7.70
2023-05-24T01:25:30.003Z,7.69
2023-05-24T01:26:29.987Z,7.70
2023-05-24T01:27:29.974Z,7.70
2023-05-24T01:28:30.004Z,7.69
2023-05-24T01:29:29.950Z,7.70
2023-05-24T01:30:29.950Z,7.70
2023-05-24T01:31:30.044Z,7.70
2023-05-24T01:32:29.973Z,7.69
2023-05-24T01:33:29.918Z,7.66
2023-05-24T01:34:29.924Z,7.63
2023-05-24T01:35:29.874Z,7.66
2023-05-24T01:36:29.876Z,7.63
2023-05-24T01:37:29.872Z,7.63
2023-05-24T01:38:29.862Z,7.62
2023-05-24T01:39:29.898Z,7.60
2023-05-24T01:40:29.835Z,7.60
2023-05-24T01:41:29.812Z,7.57
2023-05-24T01:42:29.807Z,7.54
2023-05-24T01:43:29.792Z,7.52
2023-05-24T01:44:29.798Z,7.50
2023-05-24T01:45:29.797Z,7.47
2023-05-24T01:46:29.786Z,7.47
2023-05-24T01:47:29.758Z,7.45
2023-05-24T01:48:29.733Z,7.45
2023-05-24T01:49:29.729Z,7.47
2023-05-24T01:50:29.752Z,7.47
2023-05-24T01:51:29.701Z,7.47
2023-05-24T01:52:29.714Z,7.45
2023-05-24T01:53:29.694Z,7.42
2023-05-24T01:54:29.668Z,7.39
2023-05-24T01:55:29.676Z,7.37
2023-05-24T01:56:29.688Z,7.37
2023-05-24T01:57:29.627Z,7.37
2023-05-24T01:58:29.634Z,7.36
2023-05-24T01:59:29.606Z,7.34
2023-05-24T02:00:29.610Z,7.34
2023-05-24T02:01:29.658Z,7.34
2023-05-24T02:02:29.730Z,7.33
2023-05-24T02:03:29.591Z,7.32
2023-05-24T02:04:29.566Z,7.32
2023-05-24T02:05:29.542Z,7.29
2023-05-24T02:06:29.540Z,7.26
2023-05-24T02:07:29.730Z,7.24
2023-05-24T02:08:29.542Z,7.23
2023-05-24T02:09:29.538Z,7.21
2023-05-24T02:10:29.541Z,7.19
2023-05-24T02:11:29.474Z,7.16
2023-05-24T02:12:29.463Z,7.15
2023-05-24T02:13:29.531Z,7.14
2023-05-24T02:14:29.450Z,7.12
2023-05-24T02:15:29.428Z,7.12
2023-05-24T02:16:29.448Z,7.12
2023-05-24T02:17:29.430Z,7.12
2023-05-24T02:18:29.398Z,7.11
2023-05-24T02:19:29.430Z,7.08
2023-05-24T02:20:29.433Z,7.04
2023-05-24T02:21:29.371Z,7.00
2023-05-24T02:22:29.359Z,7.00
2023-05-24T02:23:29.364Z,6.99
2023-05-24T02:24:29.350Z,6.97
2023-05-24T02:25:29.341Z,6.97
2023-05-24T02:26:29.311Z,6.96
2023-05-24T02:27:29.305Z,6.99
2023-05-24T02:28:29.295Z,6.99
2023-05-24T02:29:29.280Z,7.00
2023-05-24T02:30:29.264Z,7.01
2023-05-24T02:31:29.399Z,7.05
2023-05-24T02:32:29.251Z,7.05
2023-05-24T02:33:29.238Z,7.05
2023-05-24T02:34:29.222Z,7.07
2023-05-24T02:35:29.213Z,7.08
2023-05-24T02:36:29.195Z,7.05
2023-05-24T02:37:29.213Z,7.04
2023-05-24T02:38:29.178Z,7.01
2023-05-24T02:39:29.170Z,7.01
2023-05-24T02:40:29.162Z,7.01
2023-05-24T02:41:29.155Z,7.04
2023-05-24T02:42:29.128Z,7.01
2023-05-24T02:43:29.155Z,6.97
2023-05-24T02:44:29.128Z,6.97
2023-05-24T02:45:29.110Z,6.96
2023-05-24T02:46:29.108Z,6.93
2023-05-24T02:47:29.100Z,6.94
2023-05-24T02:48:29.061Z,6.93
2023-05-24T02:49:29.085Z,6.90
2023-05-24T02:50:29.039Z,6.89
2023-05-24T02:51:29.033Z,6.90
2023-05-24T02:52:29.047Z,6.89
2023-05-24T02:53:29.008Z,6.89
2023-05-24T02:54:29.003Z,6.90
2023-05-24T02:55:29.058Z,6.90
2023-05-24T02:56:28.971Z,6.91
2023-05-24T02:57:29.002Z,6.91
2023-05-24T02:58:28.958Z,6.93
2023-05-24T02:59:28.945Z,6.93
2023-05-24T03:00:28.920Z,6.94
2023-05-24T03:01:28.997Z,6.94
2023-05-24T03:02:28.989Z,6.97
2023-05-24T03:03:28.938Z,6.97
2023-05-24T03:04:28.890Z,6.97
2023-05-24T03:05:28.877Z,6.99
2023-05-24T03:06:28.887Z,7.00
2023-05-24T03:07:28.860Z,7.00
2023-05-24T03:08:28.837Z,7.00
2023-05-24T03:09:28.839Z,7.00
2023-05-24T03:10:28.826Z,7.00
2023-05-24T03:11:29.275Z,7.01
2023-05-24T03:12:28.789Z,7.01
2023-05-24T03:13:28.789Z,7.00
2023-05-24T03:14:28.770Z,6.99
2023-05-24T03:15:28.766Z,6.99
2023-05-24T03:16:28.757Z,7.00
2023-05-24T03:17:28.798Z,7.01
2023-05-24T03:18:28.738Z,7.04
2023-05-24T03:19:28.809Z,7.05
2023-05-24T03:20:28.767Z,7.04
2023-05-24T03:21:28.704Z,7.07
2023-05-24T03:22:28.683Z,7.05
2023-05-24T03:23:28.698Z,7.07
2023-05-24T03:24:28.668Z,7.05
2023-05-24T03:25:28.654Z,7.01
2023-05-24T03:26:28.647Z,7.01
2023-05-24T03:27:28.638Z,7.05
2023-05-24T03:28:28.620Z,7.01
2023-05-24T03:29:28.653Z,7.01
2023-05-24T03:30:28.600Z,7.00
2023-05-24T03:31:28.643Z,7.01
2023-05-24T03:32:28.616Z,7.01
2023-05-24T03:33:28.570Z,7.04
2023-05-24T03:34:28.562Z,7.01
2023-05-24T03:35:28.573Z,7.01
2023-05-24T03:36:28.530Z,7.04
2023-05-24T03:37:28.529Z,7.04
2023-05-24T03:38:28.525Z,7.04
2023-05-24T03:39:28.508Z,7.04
2023-05-24T03:40:28.496Z,7.01
2023-05-24T03:41:28.521Z,7.04
2023-05-24T03:42:28.471Z,7.04
2023-05-24T03:43:28.462Z,7.05
2023-05-24T03:44:28.447Z,7.05
2023-05-24T03:45:38.509Z,7.09
2023-05-24T03:46:28.555Z,7.09
2023-05-24T03:47:28.426Z,7.11
2023-05-24T03:48:28.404Z,7.12
2023-05-24T03:49:28.386Z,7.14
2023-05-24T03:50:28.384Z,7.14
2023-05-24T03:51:28.405Z,7.16
2023-05-24T03:52:28.356Z,7.16
2023-05-24T03:53:28.355Z,7.18
2023-05-24T03:54:28.342Z,7.18
2023-05-24T03:55:28.331Z,7.19
2023-05-24T03:56:28.311Z,7.19
2023-05-24T03:57:28.326Z,7.19
2023-05-24T03:58:28.321Z,7.21
2023-05-24T03:59:28.287Z,7.19
2023-05-24T04:00:28.260Z,7.21
2023-05-24T04:01:34.214Z,7.21
2023-05-24T04:02:28.316Z,7.21
2023-05-24T04:03:28.341Z,7.23
2023-05-24T04:04:28.218Z,7.21
2023-05-24T04:05:28.217Z,7.26
2023-05-24T04:06:28.195Z,7.26
2023-05-24T04:07:28.217Z,7.27
2023-05-24T04:08:28.219Z,7.29
2023-05-24T04:09:28.168Z,7.32
2023-05-24T04:10:28.155Z,7.32
2023-05-24T04:11:28.270Z,7.34
2023-05-24T04:12:28.136Z,7.34
2023-05-24T04:13:28.120Z,7.37
2023-05-24T04:14:28.417Z,7.41
2023-05-24T04:15:28.093Z,7.42
2023-05-24T04:16:28.123Z,7.45
2023-05-24T04:17:28.259Z,7.47
2023-05-24T04:18:28.174Z,7.48
2023-05-24T04:19:28.557Z,7.50
2023-05-24T04:20:28.098Z,7.50
2023-05-24T04:21:28.034Z,7.51
2023-05-24T04:22:28.026Z,7.50
2023-05-24T04:23:28.005Z,7.50
2023-05-24T04:24:28.073Z,7.51
2023-05-24T04:25:28.024Z,7.54
2023-05-24T04:26:27.995Z,7.54
2023-05-24T04:27:27.961Z,7.54
2023-05-24T04:28:27.960Z,7.57
2023-05-24T04:29:27.942Z,7.58
2023-05-24T04:30:27.934Z,7.67
2023-05-24T04:31:27.965Z,7.71
2023-05-24T04:32:27.950Z,7.73
2023-05-24T04:33:27.895Z,7.77
2023-05-24T04:34:27.931Z,7.89
2023-05-24T04:35:27.879Z,8.00
2023-05-24T04:36:27.907Z,8.07
2023-05-24T04:37:27.863Z,8.17
2023-05-24T04:38:27.844Z,8.27
2023-05-24T04:39:27.835Z,8.42
2023-05-24T04:40:27.831Z,8.58
2023-05-24T04:41:27.806Z,8.67
2023-05-24T04:42:27.833Z,8.70
2023-05-24T04:43:27.810Z,8.76
2023-05-24T04:44:27.787Z,8.82
2023-05-24T04:45:27.783Z,8.96
2023-05-24T04:46:27.782Z,8.94
2023-05-24T04:47:27.768Z,8.94
2023-05-24T04:48:27.761Z,9.01
2023-05-24T04:49:27.717Z,9.17
2023-05-24T04:50:27.709Z,9.23
2023-05-24T04:51:27.707Z,9.24
2023-05-24T04:52:27.698Z,9.24
2023-05-24T04:53:27.683Z,9.27
2023-05-24T04:54:27.700Z,9.27
2023-05-24T04:55:27.747Z,9.20
2023-05-24T04:56:27.648Z,9.16
2023-05-24T04:57:27.636Z,9.15
2023-05-24T04:58:27.625Z,9.15
2023-05-24T04:59:27.647Z,9.15
2023-05-24T05:00:27.605Z,9.17
2023-05-24T05:01:27.616Z,9.17
2023-05-24T05:02:27.618Z,9.17
2023-05-24T05:03:27.583Z,9.19
2023-05-24T05:04:27.561Z,9.20
2023-05-24T05:05:27.564Z,9.22
2023-05-24T05:06:27.540Z,9.24
2023-05-24T05:07:27.514Z,9.20
2023-05-24T05:08:27.508Z,9.19
2023-05-24T05:09:27.495Z,9.19
2023-05-24T05:10:27.492Z,9.15
2023-05-24T05:11:27.492Z,9.15
2023-05-24T05:12:27.477Z,9.13
2023-05-24T05:13:27.465Z,9.13
2023-05-24T05:14:27.444Z,9.12
2023-05-24T05:15:27.425Z,9.06
2023-05-24T05:16:27.472Z,9.08
2023-05-24T05:17:27.414Z,9.12
2023-05-24T05:18:27.391Z,9.10
2023-05-24T05:19:27.382Z,9.15
2023-05-24T05:20:27.441Z,9.13
2023-05-24T05:21:27.391Z,9.13
2023-05-24T05:22:28.520Z,9.13
2023-05-24T05:23:27.336Z,9.19
2023-05-24T05:24:27.336Z,9.22
2023-05-24T05:25:27.325Z,9.24
2023-05-24T05:26:27.337Z,9.32
2023-05-24T05:27:27.290Z,9.40
2023-05-24T05:28:27.287Z,9.44
2023-05-24T05:29:27.275Z,9.50
2023-05-24T05:30:27.260Z,9.58
2023-05-24T05:31:27.272Z,9.62
2023-05-24T05:32:27.424Z,9.68
2023-05-24T05:33:27.244Z,9.73
2023-05-24T05:34:27.221Z,9.80
2023-05-24T05:35:27.198Z,9.88
2023-05-24T05:36:27.223Z,9.93
2023-05-24T05:37:27.189Z,9.91
2023-05-24T05:38:27.174Z,9.98
2023-05-24T05:39:27.161Z,9.99
2023-05-24T05:40:27.155Z,10.09
2023-05-24T05:41:27.159Z,10.20
2023-05-24T05:42:27.130Z,10.29
2023-05-24T05:43:27.155Z,10.38
2023-05-24T05:44:27.104Z,10.46
2023-05-24T05:45:27.114Z,10.54
2023-05-24T05:46:27.153Z,10.55
2023-05-24T05:47:27.134Z,10.57
2023-05-24T05:48:27.080Z,10.62
2023-05-24T05:49:27.071Z,10.65
2023-05-24T05:50:27.060Z,10.68
2023-05-24T05:51:27.066Z,10.76
2023-05-24T05:52:27.133Z,10.84
2023-05-24T05:53:27.027Z,10.88
2023-05-24T05:54:27.048Z,10.90
2023-05-24T05:55:26.975Z,10.88
2023-05-24T05:56:26.974Z,10.93
2023-05-24T05:57:26.986Z,10.99
2023-05-24T05:58:26.990Z,11.02
2023-05-24T05:59:26.939Z,11.03
2023-05-24T06:00:26.970Z,11.08
2023-05-24T06:01:26.930Z,11.12
2023-05-24T06:02:26.994Z,11.19
2023-05-24T06:03:27.041Z,11.30
2023-05-24T06:04:26.950Z,11.38
2023-05-24T06:05:26.880Z,11.44
2023-05-24T06:06:26.864Z,11.54
2023-05-24T06:07:26.937Z,11.62
2023-05-24T06:08:26.848Z,11.70
2023-05-24T06:09:26.865Z,11.82
2023-05-24T06:10:26.821Z,11.88
2023-05-24T06:11:26.926Z,11.96
2023-05-24T06:12:26.807Z,11.97
2023-05-24T06:13:26.795Z,11.96
2023-05-24T06:14:26.780Z,11.96
2023-05-24T06:15:26.792Z,12.01
2023-05-24T06:16:26.774Z,12.00
2023-05-24T06:17:26.765Z,11.96
2023-05-24T06:18:26.739Z,11.93
2023-05-24T06:19:26.717Z,11.96
2023-05-24T06:20:26.762Z,11.96
2023-05-24T06:21:26.708Z,11.88
2023-05-24T06:22:26.687Z,11.94
2023-05-24T06:23:26.701Z,11.88
2023-05-24T06:24:26.689Z,11.93
2023-05-24T06:25:26.649Z,11.96
2023-05-24T06:26:26.669Z,11.98
2023-05-24T06:27:26.625Z,12.03
2023-05-24T06:28:26.631Z,12.15
2023-05-24T06:29:26.602Z,12.23
2023-05-24T06:30:26.662Z,12.34
2023-05-24T06:31:26.626Z,12.41
2023-05-24T06:32:26.625Z,12.43
2023-05-24T06:33:26.565Z,12.40
2023-05-24T06:34:26.546Z,12.34
2023-05-24T06:35:26.554Z,12.31
2023-05-24T06:36:26.532Z,12.26
2023-05-24T06:37:26.546Z,12.23
2023-05-24T06:38:26.508Z,12.16
2023-05-24T06:39:26.526Z,12.11
2023-05-24T06:40:26.492Z,12.12
2023-05-24T06:41:26.481Z,12.19
2023-05-24T06:42:26.463Z,12.26
2023-05-24T06:43:26.498Z,12.25
2023-05-24T06:44:26.440Z,12.25
2023-05-24T06:45:26.433Z,12.26
2023-05-24T06:46:26.521Z,12.23
2023-05-24T06:47:26.606Z,12.21
2023-05-24T06:48:26.546Z,12.19
2023-05-24T06:49:26.421Z,12.19
2023-05-24T06:50:26.385Z,12.23
2023-05-24T06:51:26.368Z,12.26
2023-05-24T06:52:26.348Z,12.31
2023-05-24T06:53:26.343Z,12.34
2023-05-24T06:54:26.336Z,12.40
2023-05-24T06:55:26.353Z,12.48
2023-05-24T06:56:26.298Z,12.48
2023-05-24T06:57:26.295Z,12.49
2023-05-24T06:58:26.274Z,12.58
2023-05-24T06:59:26.273Z,12.66
2023-05-24T07:00:26.275Z,12.73
2023-05-24T07:01:26.332Z,12.74
2023-05-24T07:02:26.292Z,12.74
2023-05-24T07:03:26.250Z,12.76
2023-05-24T07:04:26.256Z,12.89
2023-05-24T07:05:26.202Z,13.01
2023-05-24T07:06:26.217Z,13.12
2023-05-24T07:07:26.203Z,13.16
2023-05-24T07:08:26.164Z,13.19
2023-05-24T07:09:26.168Z,13.14
2023-05-24T07:10:26.185Z,13.03
2023-05-24T07:11:26.180Z,12.92
2023-05-24T07:12:26.157Z,12.84
2023-05-24T07:13:26.125Z,12.80
2023-05-24T07:14:26.163Z,12.79
2023-05-24T07:15:26.101Z,12.79
2023-05-24T07:16:26.133Z,12.80
2023-05-24T07:17:26.085Z,12.79
2023-05-24T07:18:26.111Z,12.76
2023-05-24T07:19:26.047Z,12.63
2023-05-24T07:20:26.117Z,12.73
2023-05-24T07:21:26.022Z,12.81
2023-05-24T07:22:26.031Z,12.91
2023-05-24T07:23:26.006Z,13.01
2023-05-24T07:24:26.385Z,13.17
2023-05-24T07:25:25.979Z,13.29
2023-05-24T07:26:25.962Z,13.46
2023-05-24T07:27:25.956Z,13.59
2023-05-24T07:28:25.954Z,13.68
2023-05-24T07:29:25.953Z,13.79
2023-05-24T07:30:32.190Z,13.80
2023-05-24T07:31:25.913Z,13.72
2023-05-24T07:32:26.002Z,13.68
2023-05-24T07:33:25.925Z,13.62
2023-05-24T07:34:25.874Z,13.57
2023-05-24T07:35:25.939Z,13.47
2023-05-24T07:36:25.849Z,13.27
2023-05-24T07:37:25.898Z,13.17
2023-05-24T07:38:25.843Z,12.95
2023-05-24T07:39:25.820Z,12.98
2023-05-24T07:40:25.805Z,13.06
2023-05-24T07:41:25.839Z,13.10
2023-05-24T07:42:25.784Z,13.13
2023-05-24T07:43:25.774Z,13.24
2023-05-24T07:44:25.759Z,13.41
2023-05-24T07:45:25.752Z,13.57
2023-05-24T07:46:25.812Z,13.72
2023-05-24T07:47:25.754Z,13.86
2023-05-24T07:48:25.717Z,13.99
2023-05-24T07:49:25.710Z,14.05
2023-05-24T07:50:25.692Z,14.12
2023-05-24T07:51:25.710Z,14.30
2023-05-24T07:52:25.671Z,14.30
2023-05-24T07:53:25.673Z,14.23
2023-05-24T07:54:25.650Z,14.21
2023-05-24T07:55:25.645Z,14.26
2023-05-24T07:56:25.628Z,14.30
2023-05-24T07:57:25.658Z,14.16
2023-05-24T07:58:25.614Z,14.09
2023-05-24T07:59:25.613Z,14.02
2023-05-24T08:00:25.586Z,14.08
2023-05-24T08:01:25.578Z,14.17
2023-05-24T08:02:25.621Z,14.26
2023-05-24T08:03:25.645Z,14.45
2023-05-24T08:04:25.549Z,14.48
2023-05-24T08:05:25.545Z,14.48
2023-05-24T08:06:25.582Z,14.49
2023-05-24T08:07:25.638Z,14.49
2023-05-24T08:08:25.518Z,14.38
2023-05-24T08:09:25.487Z,14.31
2023-05-24T08:10:25.497Z,14.29
2023-05-24T08:11:25.486Z,14.21
2023-05-24T08:12:25.453Z,14.01
2023-05-24T08:13:25.448Z,13.98
2023-05-24T08:14:25.464Z,14.05
2023-05-24T08:15:25.477Z,14.08
2023-05-24T08:16:25.456Z,14.09
2023-05-24T08:17:25.474Z,14.09
2023-05-24T08:18:25.406Z,14.06
2023-05-24T08:19:25.400Z,14.12
2023-05-24T08:20:25.441Z,14.24
2023-05-24T08:21:25.372Z,14.27
2023-05-24T08:22:25.344Z,14.23
2023-05-24T08:23:25.336Z,14.29
2023-05-24T08:24:25.325Z,14.41
2023-05-24T08:25:25.337Z,14.45
2023-05-24T08:26:25.305Z,14.54
2023-05-24T08:27:25.308Z,14.61
2023-05-24T08:28:25.308Z,14.63
2023-05-24T08:29:25.281Z,14.64
2023-05-24T08:30:25.283Z,14.63
2023-05-24T08:31:25.450Z,14.69
2023-05-24T08:32:25.286Z,14.74
2023-05-24T08:33:25.221Z,14.78
2023-05-24T08:34:25.215Z,14.78
2023-05-24T08:35:25.225Z,14.80
2023-05-24T08:36:25.189Z,14.83
2023-05-24T08:37:25.181Z,14.90
2023-05-24T08:38:25.167Z,14.87
2023-05-24T08:39:25.167Z,14.93
2023-05-24T08:40:25.169Z,14.94
2023-05-24T08:41:25.140Z,15.04
2023-05-24T08:42:25.126Z,15.16
2023-05-24T08:43:25.123Z,15.27
2023-05-24T08:44:25.102Z,15.30
2023-05-24T08:45:25.116Z,15.31
2023-05-24T08:46:25.215Z,15.34
2023-05-24T08:47:25.082Z,15.23
2023-05-24T08:48:25.151Z,15.22
2023-05-24T08:49:25.052Z,15.23
2023-05-24T08:50:25.058Z,15.18
2023-05-24T08:51:25.034Z,15.01
2023-05-24T08:52:25.013Z,14.94
2023-05-24T08:53:25.014Z,14.83
2023-05-24T08:54:24.989Z,14.86
2023-05-24T08:55:25.021Z,15.00
2023-05-24T08:56:24.965Z,15.22
2023-05-24T08:57:24.959Z,15.12
2023-05-24T08:58:24.957Z,15.05
2023-05-24T08:59:24.948Z,15.03
2023-05-24T09:00:24.950Z,15.16
2023-05-24T09:01:24.939Z,15.46
2023-05-24T09:02:24.941Z,15.80
2023-05-24T09:03:25.006Z,15.85
2023-05-24T09:04:24.995Z,15.89
2023-05-24T09:05:24.896Z,16.06
2023-05-24T09:06:24.861Z,16.32
2023-05-24T09:07:24.858Z,16.32
2023-05-24T09:08:24.842Z,16.32
2023-05-24T09:09:24.868Z,16.41
2023-05-24T09:10:24.833Z,16.52
2023-05-24T09:11:24.801Z,16.52
2023-05-24T09:12:36.573Z,16.57
2023-05-24T09:13:24.804Z,16.51
2023-05-24T09:14:24.773Z,16.55
2023-05-24T09:15:24.818Z,16.52
2023-05-24T09:16:24.767Z,16.37
2023-05-24T09:17:24.761Z,16.30
2023-05-24T09:18:24.821Z,16.22
2023-05-24T09:19:24.712Z,16.10
2023-05-24T09:20:24.780Z,15.91
2023-05-24T09:21:24.719Z,15.81
2023-05-24T09:22:24.673Z,15.76
2023-05-24T09:23:24.668Z,15.67
2023-05-24T09:24:24.654Z,15.58
2023-05-24T09:25:24.687Z,15.51
2023-05-24T09:26:24.651Z,15.52
2023-05-24T09:27:24.620Z,15.48
2023-05-24T09:28:24.603Z,15.46
2023-05-24T09:29:24.605Z,15.48
2023-05-24T09:30:24.577Z,15.48
2023-05-24T09:31:25.175Z,15.40
2023-05-24T09:32:24.834Z,15.38
2023-05-24T09:33:24.551Z,15.37
2023-05-24T09:34:24.663Z,15.33
2023-05-24T09:35:24.532Z,15.27
2023-05-24T09:36:24.510Z,15.20
2023-05-24T09:37:28.244Z,15.19
2023-05-24T09:38:24.501Z,15.16
2023-05-24T09:39:24.480Z,15.15
2023-05-24T09:40:24.468Z,15.12
2023-05-24T09:41:24.457Z,15.13
2023-05-24T09:42:24.454Z,15.18
2023-05-24T09:43:26.343Z,15.20
2023-05-24T09:44:24.417Z,15.23
2023-05-24T09:45:24.415Z,15.33
2023-05-24T09:46:24.445Z,15.40
2023-05-24T09:47:24.402Z,15.35
2023-05-24T09:48:24.368Z,15.34
2023-05-24T09:49:24.398Z,15.34
2023-05-24T09:50:24.358Z,15.38
2023-05-24T09:51:24.384Z,15.53
2023-05-24T09:52:24.337Z,15.70
2023-05-24T09:53:24.323Z,15.76
2023-05-24T09:54:24.312Z,15.80
2023-05-24T09:55:24.329Z,15.86
2023-05-24T09:56:24.290Z,15.92
2023-05-24T09:57:24.278Z,15.77
2023-05-24T09:58:24.331Z,15.59
2023-05-24T09:59:24.252Z,15.66
2023-05-24T10:00:24.250Z,15.74
2023-05-24T10:01:24.305Z,15.86
2023-05-24T10:02:24.216Z,15.85
2023-05-24T10:03:24.272Z,15.80
2023-05-24T10:04:24.243Z,15.91
2023-05-24T10:05:24.202Z,16.13
2023-05-24T10:06:24.195Z,16.30
2023-05-24T10:07:24.164Z,16.47
2023-05-24T10:08:24.190Z,16.45
2023-05-24T10:09:24.149Z,16.50
2023-05-24T10:10:24.128Z,16.66
2023-05-24T10:11:24.130Z,16.84
2023-05-24T10:12:24.143Z,16.98
2023-05-24T10:13:24.117Z,17.00
2023-05-24T10:14:24.096Z,17.07
2023-05-24T10:15:24.089Z,17.10
2023-05-24T10:16:24.093Z,17.09
2023-05-24T10:17:24.104Z,17.17
2023-05-24T10:18:24.062Z,17.25
2023-05-24T10:19:24.057Z,17.47
2023-05-24T10:20:24.077Z,17.57
2023-05-24T10:21:24.032Z,17.53
2023-05-24T10:22:24.000Z,17.47
2023-05-24T10:23:23.984Z,17.39
2023-05-24T10:24:24.007Z,17.17
2023-05-24T10:25:23.982Z,17.00
2023-05-24T10:26:23.954Z,16.72
2023-05-24T10:27:23.944Z,16.34
2023-05-24T10:28:23.934Z,16.22
2023-05-24T10:29:23.923Z,16.03
2023-05-24T10:30:23.932Z,15.88
2023-05-24T10:31:23.920Z,15.81
2023-05-24T10:32:23.921Z,15.71
2023-05-24T10:33:23.879Z,15.64
2023-05-24T10:34:23.868Z,15.66
2023-05-24T10:35:23.857Z,15.62
2023-05-24T10:36:24.053Z,15.60
2023-05-24T10:37:23.841Z,15.62
2023-05-24T10:38:23.822Z,15.62
2023-05-24T10:39:23.834Z,15.60
2023-05-24T10:40:23.807Z,15.62
2023-05-24T10:41:23.869Z,15.60
2023-05-24T10:42:23.796Z,15.48
2023-05-24T10:43:23.774Z,15.46
2023-05-24T10:44:23.758Z,15.44
2023-05-24T10:45:23.746Z,15.48
2023-05-24T10:46:23.753Z,15.41
2023-05-24T10:47:23.788Z,15.30
2023-05-24T10:48:23.730Z,15.15
2023-05-24T10:49:23.692Z,15.18
2023-05-24T10:50:23.690Z,15.07
2023-05-24T10:51:23.674Z,15.04
2023-05-24T10:52:23.667Z,15.11
2023-05-24T10:53:23.696Z,15.16
2023-05-24T10:54:23.640Z,15.23
2023-05-24T10:55:23.632Z,15.33
2023-05-24T10:56:23.617Z,15.34
2023-05-24T10:57:23.649Z,15.40
2023-05-24T10:58:23.596Z,15.44
2023-05-24T10:59:23.620Z,15.51
2023-05-24T11:00:34.671Z,15.43
2023-05-24T11:01:23.605Z,15.27
2023-05-24T11:02:23.595Z,15.37
2023-05-24T11:03:23.758Z,15.48
2023-05-24T11:04:23.533Z,15.59
2023-05-24T11:05:23.561Z,15.77
2023-05-24T11:06:23.503Z,15.93
2023-05-24T11:07:23.508Z,16.07
2023-05-24T11:08:23.495Z,16.11
2023-05-24T11:09:23.471Z,16.17
2023-05-24T11:10:23.467Z,16.03
2023-05-24T11:11:26.674Z,16.11
2023-05-24T11:12:23.648Z,16.27
2023-05-24T11:13:23.432Z,16.30
2023-05-24T11:14:23.425Z,16.50
2023-05-24T11:15:23.406Z,16.77
2023-05-24T11:16:23.414Z,17.20
2023-05-24T11:17:23.479Z,17.38
2023-05-24T11:18:23.431Z,17.43
2023-05-24T11:19:23.356Z,17.60
2023-05-24T11:20:23.404Z,17.79
2023-05-24T11:21:23.348Z,17.74
2023-05-24T11:22:23.372Z,17.79
2023-05-24T11:23:23.334Z,17.70
2023-05-24T11:24:23.321Z,17.62
2023-05-24T11:25:23.293Z,17.51
2023-05-24T11:26:23.287Z,17.47
2023-05-24T11:27:23.284Z,17.35
2023-05-24T11:28:23.350Z,17.22
2023-05-24T11:29:23.300Z,17.00
2023-05-24T11:30:23.253Z,16.82
2023-05-24T11:31:23.259Z,16.85
2023-05-24T11:32:23.451Z,16.82
2023-05-24T11:33:23.211Z,16.87
2023-05-24T11:34:23.218Z,16.88
2023-05-24T11:35:23.222Z,16.92
2023-05-24T11:36:23.174Z,16.99
2023-05-24T11:37:34.932Z,17.06
2023-05-24T11:38:25.046Z,17.18
2023-05-24T11:39:23.341Z,17.28
2023-05-24T11:40:23.132Z,17.24
2023-05-24T11:41:23.113Z,17.17
2023-05-24T11:42:23.107Z,17.05
2023-05-24T11:43:23.085Z,17.17
2023-05-24T11:44:23.085Z,17.33
2023-05-24T11:45:23.098Z,17.43
2023-05-24T11:46:23.112Z,17.47
2023-05-24T11:47:23.117Z,17.17
2023-05-24T11:48:23.041Z,17.20
2023-05-24T11:49:23.024Z,17.10
2023-05-24T11:50:23.015Z,17.21
2023-05-24T11:51:23.035Z,17.30
2023-05-24T11:52:23.023Z,17.38
2023-05-24T11:53:22.991Z,17.30
2023-05-24T11:54:23.149Z,17.03
2023-05-24T11:55:22.956Z,16.85
2023-05-24T11:56:22.948Z,16.81
2023-05-24T11:57:22.970Z,16.80
2023-05-24T11:58:22.924Z,16.78
2023-05-24T11:59:22.911Z,16.80
2023-05-24T12:00:22.902Z,16.81
2023-05-24T12:01:22.892Z,16.81
2023-05-24T12:02:23.030Z,16.80
2023-05-24T12:03:23.099Z,16.80
2023-05-24T12:04:22.898Z,16.81
2023-05-24T12:05:22.856Z,16.82
2023-05-24T12:06:22.866Z,16.81
2023-05-24T12:07:22.823Z,16.80
2023-05-24T12:08:22.827Z,16.78
2023-05-24T12:09:22.822Z,16.77
2023-05-24T12:10:23.127Z,16.78
2023-05-24T12:11:22.778Z,16.67
2023-05-24T12:12:30.485Z,16.54
2023-05-24T12:13:22.758Z,16.51
2023-05-24T12:14:22.751Z,16.50
2023-05-24T12:15:22.769Z,16.54
2023-05-24T12:16:22.770Z,16.51
2023-05-24T12:17:22.711Z,16.48
2023-05-24T12:18:22.697Z,16.45
2023-05-24T12:20:22.738Z,16.52
2023-05-24T12:21:22.697Z,16.60
2023-05-24T12:22:22.666Z,16.65
2023-05-24T12:23:22.652Z,16.69
2023-05-24T12:24:22.675Z,16.65
2023-05-24T12:25:22.636Z,16.65
2023-05-24T12:26:22.626Z,16.65
2023-05-24T12:27:22.626Z,16.65
2023-05-24T12:28:22.605Z,16.57
2023-05-24T12:29:22.596Z,16.52
2023-05-24T12:30:22.566Z,16.51
2023-05-24T12:31:22.565Z,16.55
2023-05-24T12:32:22.652Z,16.59
2023-05-24T12:33:22.543Z,16.62
2023-05-24T12:34:22.530Z,16.65
2023-05-24T12:35:22.505Z,16.66
2023-05-24T12:36:22.589Z,16.60
2023-05-24T12:37:22.485Z,16.52
2023-05-24T12:38:22.499Z,16.50
2023-05-24T12:39:22.469Z,16.50
2023-05-24T12:40:22.459Z,16.52
2023-05-24T12:41:22.448Z,16.59
2023-05-24T12:42:22.430Z,16.65
2023-05-24T12:43:22.420Z,16.57
2023-05-24T12:44:22.608Z,16.29
2023-05-24T12:45:22.414Z,16.29
2023-05-24T12:46:22.461Z,16.37
2023-05-24T12:47:22.479Z,16.44
2023-05-24T12:48:22.363Z,16.51
2023-05-24T12:49:22.377Z,16.57
2023-05-24T12:50:22.380Z,16.52
2023-05-24T12:51:22.344Z,16.52
2023-05-24T12:52:22.929Z,16.54
2023-05-24T12:53:22.319Z,16.59
2023-05-24T12:54:22.321Z,16.67
2023-05-24T12:55:22.280Z,16.81
2023-05-24T12:56:22.327Z,16.87
2023-05-24T12:57:22.264Z,16.96
2023-05-24T12:58:22.254Z,17.03
2023-05-24T12:59:22.246Z,17.12
2023-05-24T13:00:22.234Z,17.17
2023-05-24T13:01:22.383Z,17.25
2023-05-24T13:02:22.242Z,17.33
2023-05-24T13:03:22.199Z,17.40
2023-05-24T13:04:22.208Z,17.43